createdAt,value
2023-02-22T00:02:50.440Z,0
2023-02-22T00:06:15.735Z,0
2023-02-22T00:09:41.043Z,0
2023-02-22T00:13:06.377Z,0
2023-02-22T00:16:31.739Z,0
2023-02-22T00:19:56.960Z,0
2023-02-22T00:23:22.266Z,0
2023-02-22T00:26:47.565Z,0
2023-02-22T00:30:12.954Z,0
2023-02-22T00:33:38.231Z,0
2023-02-22T00:37:03.547Z,0
2023-02-22T00:40:28.819Z,0
2023-02-22T00:43:54.090Z,0
2023-02-22T00:47:19.453Z,0
2023-02-22T00:50:44.757Z,0
2023-02-22T00:54:10.093Z,0
2023-02-22T00:57:35.405Z,0
2023-02-22T01:01:00.766Z,0
2023-02-22T01:04:26.013Z,0
2023-02-22T01:07:51.986Z,0
2023-02-22T01:11:17.732Z,0
2023-02-22T01:14:44.102Z,0
2023-02-22T01:18:09.388Z,0
2023-02-22T01:21:34.728Z,0
2023-02-22T01:25:00.018Z,0
2023-02-22T01:28:25.361Z,0
2023-02-22T01:31:50.726Z,0
2023-02-22T01:35:16.014Z,0
2023-02-22T01:38:41.368Z,0
2023-02-22T01:42:06.677Z,0
2023-02-22T01:45:31.964Z,0
2023-02-22T01:48:57.281Z,0
2023-02-22T01:52:22.588Z,0
2023-02-22T01:55:47.968Z,0
2023-02-22T01:59:13.264Z,0
2023-02-22T02:02:38.582Z,0
2023-02-22T02:06:03.921Z,0
2023-02-22T02:09:29.218Z,0
2023-02-22T02:12:54.544Z,0
2023-02-22T02:16:19.864Z,0
2023-02-22T02:19:45.132Z,0
2023-02-22T02:23:10.453Z,0
2023-02-22T02:26:35.758Z,0
2023-02-22T02:30:01.104Z,0
2023-02-22T02:33:26.355Z,0
2023-02-22T02:36:51.659Z,0
2023-02-22T02:40:17.124Z,0
2023-02-22T02:43:42.270Z,0
2023-02-22T02:47:07.595Z,0
2023-02-22T02:50:32.853Z,0
2023-02-22T02:53:58.176Z,0
2023-02-22T02:57:23.518Z,0
2023-02-22T03:00:48.816Z,0
2023-02-22T03:04:14.165Z,0
2023-02-22T03:07:39.493Z,0
2023-02-22T03:11:04.755Z,0
2023-02-22T03:14:30.081Z,0
2023-02-22T03:17:55.413Z,0
2023-02-22T03:21:20.738Z,0
2023-02-22T03:24:45.995Z,0
2023-02-22T03:28:11.321Z,0
2023-02-22T03:31:36.640Z,0
2023-02-22T03:35:02.024Z,0
2023-02-22T03:38:27.333Z,0
2023-02-22T03:41:52.647Z,0
2023-02-22T03:45:17.946Z,0
2023-02-22T03:48:43.228Z,0
2023-02-22T03:52:08.568Z,0
2023-02-22T03:55:33.935Z,0
2023-02-22T03:58:59.229Z,0
2023-02-22T04:02:24.581Z,0
2023-02-22T04:05:49.926Z,0
2023-02-22T04:09:15.211Z,0
2023-02-22T04:12:40.534Z,0
2023-02-22T04:16:05.906Z,0
2023-02-22T04:19:31.160Z,0
2023-02-22T04:22:56.451Z,0
2023-02-22T04:26:21.767Z,0
2023-02-22T04:29:47.096Z,0
2023-02-22T04:33:12.350Z,0
2023-02-22T04:36:41.442Z,0
2023-02-22T04:40:06.735Z,0
2023-02-22T04:43:32.048Z,0
2023-02-22T04:46:57.383Z,0
2023-02-22T04:50:22.643Z,0
2023-02-22T04:53:47.918Z,0
2023-02-22T04:57:13.203Z,0
2023-02-22T05:00:38.487Z,0
2023-02-22T05:04:03.780Z,0
2023-02-22T05:07:29.021Z,0
2023-02-22T05:10:54.281Z,0
2023-02-22T05:14:19.530Z,0
2023-02-22T05:17:44.783Z,0
2023-02-22T05:21:10.117Z,0
2023-02-22T05:24:35.424Z,0
2023-02-22T05:28:00.729Z,0
2023-02-22T05:31:26.184Z,0
2023-02-22T05:34:51.403Z,0
2023-02-22T05:38:16.736Z,0
2023-02-22T05:41:42.036Z,0
2023-02-22T05:45:07.338Z,0
2023-02-22T05:48:32.643Z,0
2023-02-22T05:51:57.956Z,0
2023-02-22T05:55:23.303Z,0
2023-02-22T05:58:48.597Z,0
2023-02-22T06:02:13.973Z,0
2023-02-22T06:05:39.324Z,0
2023-02-22T06:09:04.635Z,0
2023-02-22T06:12:29.952Z,0
2023-02-22T06:15:55.304Z,0
2023-02-22T06:19:20.625Z,0
2023-02-22T06:22:45.956Z,0
2023-02-22T06:26:11.241Z,0
2023-02-22T06:29:36.579Z,0
2023-02-22T06:33:01.900Z,0
2023-02-22T06:36:27.180Z,0
2023-02-22T06:39:52.482Z,0
2023-02-22T06:43:17.802Z,0
2023-02-22T06:46:43.145Z,0
2023-02-22T06:50:08.501Z,0
2023-02-22T06:53:33.775Z,0
2023-02-22T06:56:59.140Z,0
2023-02-22T07:00:24.437Z,6
2023-02-22T07:03:49.750Z,6
2023-02-22T07:07:14.979Z,6
2023-02-22T07:10:40.268Z,6
2023-02-22T07:14:05.527Z,6
2023-02-22T07:17:30.814Z,6
2023-02-22T07:20:56.355Z,6
2023-02-22T07:24:22.953Z,6
2023-02-22T07:27:48.205Z,6
2023-02-22T07:31:13.505Z,6
2023-02-22T07:34:38.805Z,11
2023-02-22T07:38:04.155Z,11
2023-02-22T07:41:29.697Z,11
2023-02-22T07:44:54.934Z,11
2023-02-22T07:48:20.216Z,11
2023-02-22T07:51:46.527Z,11
2023-02-22T07:55:11.868Z,17
2023-02-22T07:58:37.094Z,17
2023-02-22T08:02:02.408Z,17
2023-02-22T08:05:27.624Z,17
2023-02-22T08:08:52.887Z,17
2023-02-22T08:12:18.206Z,17
2023-02-22T08:15:43.465Z,11
2023-02-22T08:19:08.738Z,11
2023-02-22T08:22:33.992Z,11
2023-02-22T08:25:59.276Z,17
2023-02-22T08:29:24.563Z,17
2023-02-22T08:32:49.972Z,23
2023-02-22T08:36:15.061Z,23
2023-02-22T08:39:40.411Z,23
2023-02-22T08:43:05.650Z,23
2023-02-22T08:46:30.928Z,23
2023-02-22T08:49:56.172Z,23
2023-02-22T08:53:21.414Z,23
2023-02-22T08:56:46.689Z,23
2023-02-22T09:00:11.945Z,23
2023-02-22T09:03:37.349Z,23
2023-02-22T09:07:02.577Z,23
2023-02-22T09:10:27.819Z,23
2023-02-22T09:13:53.066Z,23
2023-02-22T09:17:18.317Z,23
2023-02-22T09:20:43.633Z,23
2023-02-22T09:24:08.829Z,17
2023-02-22T09:27:34.071Z,23
2023-02-22T09:30:59.326Z,17
2023-02-22T09:34:24.578Z,17
2023-02-22T09:37:49.871Z,23
2023-02-22T09:41:15.490Z,23
2023-02-22T09:44:40.340Z,23
2023-02-22T09:48:19.382Z,17
2023-02-22T09:51:30.931Z,23
2023-02-22T09:54:56.246Z,23
2023-02-22T09:58:21.461Z,23
2023-02-22T10:01:46.705Z,17
2023-02-22T10:05:12.020Z,34
2023-02-22T10:08:37.222Z,39
2023-02-22T10:12:02.496Z,34
2023-02-22T10:15:27.723Z,28
2023-02-22T10:18:52.958Z,34
2023-02-22T10:22:18.222Z,23
2023-02-22T10:25:43.482Z,17
2023-02-22T10:29:08.757Z,34
2023-02-22T10:32:33.957Z,34
2023-02-22T10:35:59.235Z,34
2023-02-22T10:39:24.513Z,23
2023-02-22T10:42:49.732Z,28
2023-02-22T10:46:15.325Z,34
2023-02-22T10:49:40.273Z,34
2023-02-22T10:53:05.530Z,39
2023-02-22T10:56:30.790Z,34
2023-02-22T10:59:56.044Z,39
2023-02-22T11:03:21.359Z,39
2023-02-22T11:06:46.576Z,39
2023-02-22T11:10:11.885Z,23
2023-02-22T11:13:37.164Z,45
2023-02-22T11:17:02.425Z,45
2023-02-22T11:20:27.742Z,51
2023-02-22T11:23:52.942Z,45
2023-02-22T11:27:18.210Z,51
2023-02-22T11:30:43.541Z,51
2023-02-22T11:34:08.710Z,51
2023-02-22T11:37:34.022Z,51
2023-02-22T11:40:59.272Z,51
2023-02-22T11:44:24.522Z,51
2023-02-22T11:47:49.804Z,56
2023-02-22T11:51:15.099Z,45
2023-02-22T11:54:40.389Z,39
2023-02-22T11:58:05.626Z,56
2023-02-22T12:01:30.922Z,51
2023-02-22T12:04:56.285Z,51
2023-02-22T12:08:21.452Z,51
2023-02-22T12:11:46.731Z,45
2023-02-22T12:15:11.962Z,45
2023-02-22T12:18:37.245Z,45
2023-02-22T12:22:02.553Z,51
2023-02-22T12:25:27.839Z,45
2023-02-22T12:28:53.354Z,45
2023-02-22T12:32:18.526Z,45
2023-02-22T12:35:43.631Z,39
2023-02-22T12:39:08.894Z,39
2023-02-22T12:42:34.166Z,39
2023-02-22T12:45:59.578Z,39
2023-02-22T12:49:24.708Z,39
2023-02-22T12:52:49.975Z,39
2023-02-22T12:56:15.300Z,34
2023-02-22T12:59:40.689Z,34
2023-02-22T13:03:06.067Z,34
2023-02-22T13:06:31.385Z,28
2023-02-22T13:09:56.732Z,28
2023-02-22T13:13:22.134Z,28
2023-02-22T13:16:47.457Z,28
2023-02-22T13:20:12.828Z,28
2023-02-22T13:23:38.178Z,34
2023-02-22T13:27:03.509Z,34
2023-02-22T13:30:28.889Z,34
2023-02-22T13:33:54.124Z,34
2023-02-22T13:37:19.727Z,34
2023-02-22T13:40:44.922Z,28
2023-02-22T13:44:10.231Z,28
2023-02-22T13:47:35.531Z,34
2023-02-22T13:51:00.833Z,28
2023-02-22T13:54:27.135Z,28
2023-02-22T13:57:51.506Z,28
2023-02-22T14:01:16.838Z,23
2023-02-22T14:04:42.127Z,23
2023-02-22T14:08:07.535Z,23
2023-02-22T14:11:33.026Z,23
2023-02-22T14:14:58.396Z,28
2023-02-22T14:18:23.768Z,23
2023-02-22T14:21:49.188Z,23
2023-02-22T14:25:23.567Z,23
2023-02-22T14:28:40.567Z,23
2023-02-22T15:06:47.942Z,6
2023-02-22T15:10:13.194Z,17
2023-02-22T15:13:38.445Z,11
2023-02-22T15:17:03.705Z,11
2023-02-22T15:20:28.985Z,11
2023-02-22T15:23:54.373Z,11
2023-02-22T15:27:20.364Z,11
2023-02-22T15:30:45.713Z,11
2023-02-22T15:34:11.032Z,11
2023-02-22T15:37:36.376Z,6
2023-02-22T15:41:01.746Z,6
2023-02-22T15:44:27.339Z,6
2023-02-22T15:47:53.008Z,6
2023-02-22T15:51:18.984Z,6
2023-02-22T15:54:44.366Z,6
2023-02-22T15:58:09.986Z,6
2023-02-22T16:01:35.649Z,6
2023-02-22T16:05:01.584Z,6
2023-02-22T16:08:26.994Z,0
2023-02-22T16:11:52.676Z,0
2023-02-22T16:15:18.464Z,0
2023-02-22T16:18:44.149Z,0
2023-02-22T16:22:10.459Z,0
2023-02-22T16:25:35.840Z,0
2023-02-22T16:29:01.574Z,0
2023-02-22T16:32:27.092Z,0
2023-02-22T16:35:52.756Z,0
2023-02-22T16:39:18.619Z,0
2023-02-22T16:42:44.572Z,0
2023-02-22T16:46:10.225Z,0
2023-02-22T16:49:35.814Z,0
2023-02-22T16:53:01.599Z,0
2023-02-22T16:56:29.114Z,0
2023-02-22T16:59:53.181Z,0
2023-02-22T17:03:18.802Z,0
2023-02-22T17:06:44.179Z,0
2023-02-22T17:10:09.432Z,0
2023-02-22T17:13:34.704Z,0
2023-02-22T17:16:59.971Z,0
2023-02-22T17:20:25.317Z,0
2023-02-22T17:23:50.924Z,0
2023-02-22T17:27:17.139Z,0
2023-02-22T17:30:44.223Z,0
2023-02-22T17:34:10.893Z,0
2023-02-22T17:37:37.902Z,0
2023-02-22T17:41:04.875Z,0
2023-02-22T17:44:31.719Z,0
2023-02-22T17:47:59.273Z,0
2023-02-22T17:51:26.277Z,0
2023-02-22T17:54:53.237Z,0
2023-02-22T17:58:20.365Z,0
2023-02-22T18:01:47.154Z,0
2023-02-22T18:05:14.190Z,0
2023-02-22T18:08:41.070Z,0
2023-02-22T18:12:08.212Z,0
2023-02-22T18:15:35.326Z,0
2023-02-22T18:19:02.556Z,0
2023-02-22T18:22:29.460Z,0
2023-02-22T18:26:09.518Z,0
2023-02-22T18:29:23.859Z,0
2023-02-22T18:32:50.940Z,0
2023-02-22T18:36:18.019Z,0
2023-02-22T18:39:44.809Z,0
2023-02-22T18:43:12.659Z,0
2023-02-22T18:46:39.901Z,0
2023-02-22T18:50:07.042Z,0
2023-02-22T18:53:34.069Z,0
2023-02-22T18:57:01.401Z,0
2023-02-22T19:00:28.736Z,0
2023-02-22T19:03:56.480Z,0
2023-02-22T19:07:24.238Z,0
2023-02-22T19:10:51.540Z,0
2023-02-22T19:14:19.067Z,0
2023-02-22T19:17:46.414Z,0
2023-02-22T19:21:13.720Z,0
2023-02-22T19:24:41.328Z,0
2023-02-22T19:28:08.755Z,0
2023-02-22T19:31:36.528Z,0
2023-02-22T19:38:32.066Z,0
2023-02-22T19:41:59.660Z,0
2023-02-22T19:45:26.949Z,0
2023-02-22T19:48:54.467Z,0
2023-02-22T19:52:21.900Z,0
2023-02-22T19:55:49.476Z,0
2023-02-22T19:59:17.133Z,0
2023-02-22T20:02:44.944Z,0
2023-02-22T20:06:13.215Z,0
2023-02-22T20:09:41.134Z,0
2023-02-22T20:13:09.225Z,0
2023-02-22T20:16:37.106Z,0
2023-02-22T20:20:05.141Z,0
2023-02-22T20:23:32.894Z,0
2023-02-22T20:27:00.927Z,0
2023-02-22T20:30:31.777Z,0
2023-02-22T20:34:00.224Z,0
2023-02-22T20:37:28.716Z,0
2023-02-22T20:40:56.542Z,0
2023-02-22T20:44:23.964Z,0
2023-02-22T20:47:52.184Z,0
2023-02-22T20:51:18.745Z,0
2023-02-22T20:54:44.140Z,0
2023-02-22T20:58:09.865Z,0
2023-02-22T21:01:35.634Z,0
2023-02-22T21:05:01.380Z,0
2023-02-22T21:08:27.116Z,0
2023-02-22T21:11:52.781Z,0
2023-02-22T21:15:18.540Z,0
2023-02-22T21:18:44.300Z,0
2023-02-22T21:22:10.126Z,0
2023-02-22T21:25:35.848Z,0
2023-02-22T21:29:01.533Z,0
2023-02-22T21:32:27.284Z,0
2023-02-22T21:35:52.995Z,0
2023-02-22T21:39:18.795Z,0
2023-02-22T21:42:44.535Z,0
2023-02-22T21:46:10.228Z,0
2023-02-22T21:49:35.984Z,0
2023-02-22T21:53:01.751Z,0
2023-02-22T21:56:27.543Z,0
2023-02-22T21:59:53.391Z,0
2023-02-22T22:03:19.005Z,0
2023-02-22T22:06:44.771Z,0
2023-02-22T22:10:10.531Z,0
2023-02-22T22:13:36.286Z,0
2023-02-22T22:17:02.083Z,0
2023-02-22T22:20:27.797Z,0
2023-02-22T22:23:53.536Z,0
2023-02-22T22:27:19.328Z,0
2023-02-22T22:30:45.194Z,0
2023-02-22T22:34:10.821Z,0
2023-02-22T22:37:36.523Z,0
2023-02-22T22:41:02.262Z,0
2023-02-22T22:44:27.906Z,0
2023-02-22T22:47:53.633Z,0
2023-02-22T22:51:19.720Z,0
2023-02-22T22:54:45.145Z,0
2023-02-22T22:58:10.869Z,0
2023-02-22T23:01:36.553Z,0
2023-02-22T23:05:02.303Z,0
2023-02-22T23:08:28.070Z,0
2023-02-22T23:11:53.765Z,0
2023-02-22T23:15:19.468Z,0
2023-02-22T23:18:45.195Z,0
2023-02-22T23:22:10.912Z,0
2023-02-22T23:25:36.762Z,0
2023-02-22T23:29:02.327Z,0
2023-02-22T23:32:28.038Z,0
2023-02-22T23:35:53.723Z,0
2023-02-22T23:39:19.410Z,0
2023-02-22T23:42:45.172Z,0
2023-02-22T23:46:10.875Z,0
2023-02-22T23:49:36.587Z,0
2023-02-22T23:53:02.393Z,0
2023-02-22T23:56:28.188Z,0
2023-02-22T23:59:53.992Z,0
